Terminal Aerodrome Forecast
Issued by NWS Binghamton, NY

Home | Current Version | Previous Version | Text Only | Print | Product List | Glossary On
Versions: 1 2 3 4 5 6 7 8 9 10 11 12 13 14 15 16 17
811
FTUS41 KBGM 271122
TAFSYR
TAF
KSYR 271122Z 2712/2812 08005KT P6SM SCT200
     FM271400 14010G20KT P6SM SCT200
     FM272000 16011G21KT P6SM BKN050
     FM280200 25010KT P6SM BKN040 BKN200
      TEMPO 2802/2805 5SM TSRA BR BKN025CB
     FM280500 25008KT 5SM -SHRA BR BKN028
     FM280800 27010KT P6SM BKN040=

USA.gov is the U.S. government's official web portal to all federal, state and local government web resources and services.